createdAt,value
2023-05-17T00:00:00.469Z,14
2023-05-17T00:05:00.305Z,15
2023-05-17T00:10:00.506Z,14
2023-05-17T00:15:00.027Z,14
2023-05-17T00:20:00.319Z,15
2023-05-17T00:25:00.206Z,16
2023-05-17T00:30:00.289Z,16
2023-05-17T00:35:00.230Z,16
2023-05-17T00:40:00.351Z,16
2023-05-17T00:45:00.234Z,16
2023-05-17T00:50:00.018Z,15
2023-05-17T00:55:00.072Z,15
2023-05-17T01:00:00.116Z,15
2023-05-17T01:05:00.449Z,15
2023-05-17T01:10:00.598Z,16
2023-05-17T01:15:00.372Z,15
2023-05-17T01:20:03.355Z,16
2023-05-17T01:25:00.071Z,16
2023-05-17T01:30:01.441Z,16
2023-05-17T01:35:02.667Z,17
2023-05-17T01:40:00.206Z,16
2023-05-17T01:45:00.066Z,16
2023-05-17T01:50:00.192Z,16
2023-05-17T01:55:03.553Z,16
2023-05-17T02:00:00.154Z,17
2023-05-17T02:05:00.117Z,17
2023-05-17T02:10:00.030Z,17
2023-05-17T02:14:59.930Z,17
2023-05-17T02:20:00.288Z,17
2023-05-17T02:25:00.076Z,17
2023-05-17T02:30:00.182Z,18
2023-05-17T02:34:59.912Z,17
2023-05-17T02:39:59.961Z,17
2023-05-17T02:45:00.562Z,16
2023-05-17T02:50:00.258Z,16
2023-05-17T02:55:00.422Z,16
2023-05-17T03:00:00.331Z,16
2023-05-17T03:05:00.168Z,16
2023-05-17T03:10:00.185Z,16
2023-05-17T03:15:00.092Z,16
2023-05-17T03:20:00.307Z,16
2023-05-17T03:25:00.154Z,16
2023-05-17T03:30:00.055Z,16
2023-05-17T03:35:00.148Z,16
2023-05-17T03:39:59.914Z,16
2023-05-17T03:45:00.052Z,16
2023-05-17T03:50:00.080Z,16
2023-05-17T03:54:59.960Z,16
2023-05-17T03:59:59.906Z,17
2023-05-17T04:05:00.198Z,16
2023-05-17T04:09:59.904Z,16
2023-05-17T04:15:00.314Z,15
2023-05-17T04:20:00.177Z,15
2023-05-17T04:25:00.060Z,15
2023-05-17T04:29:59.937Z,14
2023-05-17T04:34:59.926Z,14
2023-05-17T04:40:00.000Z,14
2023-05-17T04:45:00.150Z,14
2023-05-17T04:50:00.035Z,14
2023-05-17T04:54:59.855Z,14
2023-05-17T04:59:59.938Z,15
2023-05-17T05:04:59.837Z,15
2023-05-17T05:10:00.038Z,16
2023-05-17T05:15:00.987Z,15
2023-05-17T05:20:00.573Z,15
2023-05-17T05:25:00.339Z,15
2023-05-17T05:29:59.860Z,15
2023-05-17T05:34:59.769Z,14
2023-05-17T05:40:00.287Z,15
2023-05-17T05:44:59.922Z,14
2023-05-17T05:49:59.819Z,13
2023-05-17T05:55:00.073Z,13
2023-05-17T05:59:59.866Z,13
2023-05-17T06:05:00.094Z,13
2023-05-17T06:09:59.920Z,13
2023-05-17T06:14:59.776Z,13
2023-05-17T06:20:00.334Z,13
2023-05-17T06:24:59.888Z,12
2023-05-17T06:29:59.839Z,12
2023-05-17T06:34:59.790Z,12
2023-05-17T06:40:09.027Z,12
2023-05-17T06:45:00.005Z,12
2023-05-17T06:50:00.188Z,12
2023-05-17T06:55:00.361Z,12
2023-05-17T06:59:59.779Z,12
2023-05-17T07:04:59.866Z,12
2023-05-17T07:09:59.700Z,11
2023-05-17T07:14:59.808Z,11
2023-05-17T07:19:59.980Z,11
2023-05-17T07:24:59.748Z,11
2023-05-17T07:29:59.851Z,11
2023-05-17T07:34:59.714Z,11
2023-05-17T07:39:59.885Z,11
2023-05-17T07:44:59.992Z,11
2023-05-17T07:49:59.965Z,10
2023-05-17T07:54:59.930Z,10
2023-05-17T07:59:59.929Z,11
2023-05-17T08:05:00.218Z,11
2023-05-17T08:09:59.815Z,10
2023-05-17T08:14:59.975Z,10
2023-05-17T08:19:59.802Z,10
2023-05-17T08:24:59.933Z,10
2023-05-17T08:29:59.663Z,10
2023-05-17T08:34:59.852Z,10
2023-05-17T08:39:59.906Z,10
2023-05-17T08:44:59.971Z,10
2023-05-17T08:49:59.918Z,10
2023-05-17T08:54:59.993Z,10
2023-05-17T08:59:59.695Z,10
2023-05-17T09:04:59.688Z,9
2023-05-17T09:09:59.606Z,9
2023-05-17T09:14:59.942Z,9
2023-05-17T09:20:00.055Z,9
2023-05-17T09:24:59.915Z,10
2023-05-17T09:29:59.891Z,10
2023-05-17T09:34:59.803Z,9
2023-05-17T09:40:00.050Z,9
2023-05-17T09:44:59.837Z,9
2023-05-17T09:49:59.671Z,9
2023-05-17T09:55:00.343Z,9
2023-05-17T09:59:59.767Z,9
2023-05-17T10:04:59.803Z,9
2023-05-17T10:09:59.618Z,9
2023-05-17T10:14:59.695Z,9
2023-05-17T10:19:59.857Z,9
2023-05-17T10:24:59.847Z,9
2023-05-17T10:29:59.607Z,9
2023-05-17T10:35:10.550Z,9
2023-05-17T10:40:00.296Z,9
2023-05-17T10:44:59.763Z,9
2023-05-17T10:49:59.717Z,9
2023-05-17T10:54:59.948Z,9
2023-05-17T10:59:59.659Z,9
2023-05-17T11:05:00.073Z,9
2023-05-17T11:09:59.830Z,9
2023-05-17T11:14:59.823Z,9
2023-05-17T11:19:59.835Z,9
2023-05-17T11:25:00.808Z,9
2023-05-17T11:30:06.166Z,9
2023-05-17T11:34:59.602Z,9
2023-05-17T11:40:00.810Z,9
2023-05-17T11:44:59.960Z,9
2023-05-17T11:50:01.435Z,9
2023-05-17T11:55:00.567Z,9
2023-05-17T11:59:59.852Z,9
2023-05-17T12:04:59.802Z,9
2023-05-17T12:09:59.616Z,9
2023-05-17T12:14:59.764Z,9
2023-05-17T12:19:59.566Z,9
2023-05-17T12:24:59.796Z,9
2023-05-17T12:30:12.569Z,9
2023-05-17T12:34:59.745Z,9
2023-05-17T12:39:59.796Z,10
2023-05-17T12:44:59.448Z,10
2023-05-17T12:49:59.866Z,9
2023-05-17T12:54:59.774Z,10
2023-05-17T12:59:59.574Z,9
2023-05-17T13:04:59.585Z,10
2023-05-17T13:09:59.884Z,9
2023-05-17T13:14:59.643Z,9
2023-05-17T13:20:00.259Z,9
2023-05-17T13:24:59.500Z,10
2023-05-17T13:29:59.476Z,10
2023-05-17T13:34:59.501Z,10
2023-05-17T13:39:59.455Z,10
2023-05-17T13:44:59.545Z,10
2023-05-17T13:49:59.955Z,10
2023-05-17T13:54:59.836Z,10
2023-05-17T13:59:59.533Z,10
2023-05-17T14:04:59.425Z,10
2023-05-17T14:09:59.698Z,10
2023-05-17T14:14:59.557Z,10
2023-05-17T14:19:59.469Z,10
2023-05-17T14:24:59.408Z,10
2023-05-17T14:29:59.415Z,10
2023-05-17T14:34:59.558Z,10
2023-05-17T14:40:06.582Z,10
2023-05-17T14:44:59.654Z,10
2023-05-17T14:49:59.412Z,10
2023-05-17T14:54:59.507Z,10
2023-05-17T14:59:59.952Z,10
2023-05-17T15:04:59.931Z,10
2023-05-17T15:09:59.609Z,10
2023-05-17T15:14:59.585Z,10
2023-05-17T15:19:59.624Z,10
2023-05-17T15:24:59.400Z,10
2023-05-17T15:29:59.495Z,10
2023-05-17T15:34:59.739Z,11
2023-05-17T15:39:59.332Z,11
2023-05-17T15:44:59.563Z,11
2023-05-17T15:49:59.503Z,11
2023-05-17T15:54:59.736Z,11
2023-05-17T15:59:59.410Z,11
2023-05-17T16:05:01.759Z,11
2023-05-17T16:09:59.483Z,11
2023-05-17T16:14:59.438Z,11
2023-05-17T16:19:59.591Z,11
2023-05-17T16:24:59.298Z,11
2023-05-17T16:29:59.633Z,11
2023-05-17T16:34:59.352Z,11
2023-05-17T16:39:59.309Z,11
2023-05-17T16:44:59.556Z,11
2023-05-17T16:49:59.239Z,11
2023-05-17T16:54:59.485Z,11
2023-05-17T16:59:59.332Z,11
2023-05-17T17:04:59.478Z,11
2023-05-17T17:09:59.258Z,11
2023-05-17T17:14:59.510Z,11
2023-05-17T17:19:59.283Z,12
2023-05-17T17:24:59.301Z,11
2023-05-17T17:29:59.352Z,12
2023-05-17T17:34:59.372Z,11
2023-05-17T17:39:59.402Z,12
2023-05-17T17:44:59.519Z,12
2023-05-17T17:49:59.330Z,12
2023-05-17T17:54:59.394Z,12
2023-05-17T17:59:59.711Z,11
2023-05-17T18:04:59.480Z,11
2023-05-17T18:10:00.548Z,11
2023-05-17T18:15:00.320Z,11
2023-05-17T18:20:00.549Z,11
2023-05-17T18:25:00.382Z,11
2023-05-17T18:30:00.406Z,11
2023-05-17T18:35:00.446Z,11
2023-05-17T18:40:00.428Z,11
2023-05-17T18:45:00.511Z,11
2023-05-17T18:50:00.464Z,11
2023-05-17T18:55:00.541Z,11
2023-05-17T19:00:00.471Z,11
2023-05-17T19:05:00.451Z,11
2023-05-17T19:10:00.345Z,11
2023-05-17T19:15:00.513Z,11
2023-05-17T19:20:01.128Z,11
2023-05-17T19:25:00.282Z,11
2023-05-17T19:30:00.538Z,11
2023-05-17T19:35:00.242Z,11
2023-05-17T19:40:00.472Z,11
2023-05-17T19:45:00.389Z,11
2023-05-17T19:50:00.560Z,11
2023-05-17T19:55:00.589Z,11
2023-05-17T20:00:00.575Z,11
2023-05-17T20:05:00.664Z,11
2023-05-17T20:10:00.743Z,11
2023-05-17T20:15:00.586Z,11
2023-05-17T20:20:00.366Z,12
2023-05-17T20:25:00.485Z,12
2023-05-17T20:30:00.337Z,12
2023-05-17T20:35:00.633Z,12
2023-05-17T20:40:00.588Z,12
2023-05-17T20:45:00.514Z,12
2023-05-17T20:50:00.515Z,12
2023-05-17T20:55:00.267Z,12
2023-05-17T21:00:00.464Z,12
2023-05-17T21:05:00.710Z,12
2023-05-17T21:10:00.194Z,12
2023-05-17T21:15:15.063Z,13
2023-05-17T21:20:00.699Z,13
2023-05-17T21:25:00.500Z,12
2023-05-17T21:30:00.283Z,13
2023-05-17T21:35:00.439Z,12
2023-05-17T21:40:00.388Z,12
2023-05-17T21:45:00.208Z,12
2023-05-17T21:50:00.367Z,12
2023-05-17T21:55:00.511Z,11
2023-05-17T22:00:00.383Z,11
2023-05-17T22:05:00.600Z,11
2023-05-17T22:10:00.401Z,11
2023-05-17T22:15:00.182Z,11
2023-05-17T22:20:01.246Z,12
2023-05-17T22:25:00.572Z,11
2023-05-17T22:30:00.367Z,11
2023-05-17T22:35:00.404Z,11
2023-05-17T22:40:00.389Z,11
2023-05-17T22:45:00.150Z,11
2023-05-17T22:50:00.408Z,11
2023-05-17T22:55:00.039Z,11
2023-05-17T23:00:00.360Z,11
2023-05-17T23:05:00.197Z,11
2023-05-17T23:10:00.361Z,12
2023-05-17T23:15:00.165Z,11
2023-05-17T23:20:00.168Z,12
2023-05-17T23:25:00.272Z,12
2023-05-17T23:30:00.318Z,12
2023-05-17T23:35:00.278Z,12
2023-05-17T23:40:00.438Z,12
2023-05-17T23:45:00.420Z,12
2023-05-17T23:50:00.245Z,12
2023-05-17T23:55:00.180Z,12
